createdAt,value
2022-08-22T00:00:23.963Z,99.99
2022-08-22T00:01:25.474Z,99.99
2022-08-22T00:02:23.903Z,99.99
2022-08-22T00:02:46.809Z,99.99
2022-08-22T00:02:49.563Z,99.99
2022-08-22T00:02:55.386Z,99.99
2022-08-22T00:02:58.482Z,99.99
2022-08-22T00:03:06.627Z,99.99
2022-08-22T00:03:23.559Z,99.99
2022-08-22T00:04:25.267Z,99.99
2022-08-22T00:05:25.451Z,99.99
2022-08-22T00:06:27.045Z,99.99
2022-08-22T00:07:25.892Z,99.99
2022-08-22T00:08:24.521Z,99.99
2022-08-22T00:09:26.687Z,99.99
2022-08-22T00:10:25.868Z,99.99
2022-08-22T00:11:28.356Z,99.99
2022-08-22T00:12:27.476Z,99.99
2022-08-22T00:13:25.880Z,99.99
2022-08-22T00:14:28.025Z,99.99
2022-08-22T00:15:43.312Z,99.99
2022-08-22T00:16:28.898Z,99.99
2022-08-22T00:17:28.756Z,99.99
2022-08-22T00:18:27.518Z,99.99
2022-08-22T00:19:29.704Z,99.99
2022-08-22T00:20:28.434Z,99.99
2022-08-22T00:21:32.300Z,99.99
2022-08-22T00:22:30.504Z,99.99
2022-08-22T00:23:28.893Z,99.99
2022-08-22T00:24:31.082Z,99.99
2022-08-22T00:25:29.470Z,99.99
2022-08-22T00:26:32.807Z,99.99
2022-08-22T00:27:31.876Z,99.99
2022-08-22T00:28:30.474Z,99.99
2022-08-22T00:29:32.541Z,99.99
2022-08-22T00:30:32.706Z,99.99
2022-08-22T00:31:34.118Z,99.99
2022-08-22T00:32:33.068Z,99.99
2022-08-22T00:33:31.878Z,99.99
2022-08-22T00:34:32.058Z,99.99
2022-08-22T00:35:33.215Z,99.99
2022-08-22T00:36:33.634Z,99.99
2022-08-22T00:37:34.987Z,99.99
2022-08-22T00:38:33.246Z,99.99
2022-08-22T00:39:33.574Z,99.99
2022-08-22T00:40:33.888Z,99.99
2022-08-22T00:41:36.099Z,99.99
2022-08-22T00:42:36.299Z,99.99
2022-08-22T00:43:34.824Z,99.99
2022-08-22T00:44:37.035Z,99.99
2022-08-22T00:45:35.433Z,99.99
2022-08-22T00:46:35.918Z,99.99
2022-08-22T00:47:37.947Z,99.99
2022-08-22T00:48:36.353Z,99.99
2022-08-22T00:49:36.679Z,99.99
2022-08-22T00:50:38.868Z,99.99
2022-08-22T00:51:38.088Z,99.99
2022-08-22T00:52:37.567Z,99.99
2022-08-22T00:53:37.803Z,99.99
2022-08-22T00:54:38.112Z,99.99
2022-08-22T00:55:40.311Z,99.99
2022-08-22T00:56:38.693Z,99.99
2022-08-22T00:57:39.029Z,99.99
2022-08-22T00:58:39.338Z,99.99
2022-08-22T00:59:39.656Z,99.99
2022-08-22T01:00:41.839Z,99.99
2022-08-22T01:01:40.282Z,99.99
2022-08-22T01:02:42.433Z,99.99
2022-08-22T01:03:40.823Z,99.99
2022-08-22T01:04:41.144Z,99.99
2022-08-22T01:05:43.324Z,99.99
2022-08-22T01:06:41.720Z,99.99
2022-08-22T01:07:42.573Z,99.99
2022-08-22T01:08:42.330Z,99.99
2022-08-22T01:09:45.975Z,99.99
2022-08-22T01:10:46.164Z,99.99
2022-08-22T01:11:44.686Z,99.99
2022-08-22T01:12:44.257Z,99.99
2022-08-22T01:13:45.625Z,99.99
2022-08-22T01:14:44.836Z,99.99
2022-08-22T01:15:46.207Z,99.99
2022-08-22T01:16:48.397Z,99.99
2022-08-22T01:17:44.822Z,99.99
2022-08-22T01:18:47.019Z,99.99
2022-08-22T01:19:46.411Z,99.99
2022-08-22T01:20:47.590Z,99.99
2022-08-22T01:21:47.447Z,99.99
2022-08-22T01:22:47.148Z,99.99
2022-08-22T01:23:46.538Z,99.99
2022-08-22T01:24:46.838Z,99.99
2022-08-22T01:25:49.024Z,99.99
2022-08-22T01:26:49.316Z,99.99
2022-08-22T01:27:47.758Z,99.99
2022-08-22T01:28:50.378Z,99.99
2022-08-22T01:29:48.303Z,99.99
2022-08-22T01:30:50.521Z,99.99
2022-08-22T01:31:50.881Z,99.99
2022-08-22T01:32:49.149Z,99.99
2022-08-22T01:33:50.568Z,99.99
2022-08-22T01:34:49.807Z,99.99
2022-08-22T01:35:50.128Z,99.99
2022-08-22T01:36:52.452Z,99.99
2022-08-22T01:37:50.728Z,99.99
2022-08-22T01:38:51.064Z,99.99
2022-08-22T01:39:51.353Z,99.99
2022-08-22T01:40:53.877Z,99.99
2022-08-22T01:41:55.810Z,99.99
2022-08-22T01:42:52.203Z,99.99
2022-08-22T01:43:59.884Z,99.99
2022-08-22T01:44:55.538Z,99.99
2022-08-22T01:45:54.752Z,99.99
2022-08-22T01:46:55.337Z,99.99
2022-08-22T01:47:55.250Z,99.99
2022-08-22T01:48:55.417Z,99.99
2022-08-22T01:49:54.690Z,99.99
2022-08-22T01:50:56.381Z,99.99
2022-08-22T01:51:56.640Z,99.99
2022-08-22T01:52:56.775Z,99.99
2022-08-22T01:53:56.957Z,99.99
2022-08-22T01:54:57.155Z,99.99
2022-08-22T01:55:57.863Z,99.99
2022-08-22T01:56:59.237Z,99.99
2022-08-22T01:57:56.576Z,99.99
2022-08-22T01:58:56.748Z,99.99
2022-08-22T01:59:58.952Z,99.99
2022-08-22T02:00:59.133Z,99.99
2022-08-22T02:02:00.553Z,99.99
2022-08-22T02:02:59.630Z,99.99
2022-08-22T02:03:58.290Z,99.99
2022-08-22T02:05:00.479Z,99.99
2022-08-22T02:05:59.779Z,99.99
2022-08-22T02:07:02.118Z,99.99
2022-08-22T02:08:01.222Z,99.99
2022-08-22T02:08:59.741Z,99.99
2022-08-22T02:10:00.049Z,99.99
2022-08-22T02:11:02.224Z,99.99
2022-08-22T02:12:02.095Z,99.99
2022-08-22T02:13:00.924Z,99.99
2022-08-22T02:14:01.241Z,99.99
2022-08-22T02:15:01.562Z,99.99
2022-08-22T02:16:03.751Z,99.99
2022-08-22T02:17:05.937Z,99.99
2022-08-22T02:18:02.372Z,99.99
2022-08-22T02:19:04.541Z,99.99
2022-08-22T02:20:02.933Z,99.99
2022-08-22T02:21:03.241Z,99.99
2022-08-22T02:22:05.596Z,99.99
2022-08-22T02:23:03.911Z,99.99
2022-08-22T02:24:06.066Z,99.99
2022-08-22T02:25:09.012Z,99.99
2022-08-22T02:26:04.785Z,99.99
2022-08-22T02:27:08.137Z,99.99
2022-08-22T02:28:05.423Z,99.99
2022-08-22T02:29:07.619Z,99.99
2022-08-22T02:30:06.030Z,99.99
2022-08-22T02:31:06.341Z,99.99
2022-08-22T02:32:09.698Z,99.99
2022-08-22T02:33:08.873Z,99.99
2022-08-22T02:34:07.254Z,99.99
2022-08-22T02:35:09.441Z,99.99
2022-08-22T02:36:07.838Z,99.99
2022-08-22T02:37:11.978Z,99.99
2022-08-22T02:38:10.214Z,99.99
2022-08-22T02:39:08.724Z,99.99
2022-08-22T02:40:09.220Z,99.99
2022-08-22T02:41:09.385Z,99.99
2022-08-22T02:42:13.549Z,99.99
2022-08-22T02:43:09.973Z,99.99
2022-08-22T02:44:10.300Z,99.99
2022-08-22T02:45:10.605Z,99.99
2022-08-22T02:46:10.930Z,99.99
2022-08-22T02:47:14.150Z,99.99
2022-08-22T02:48:11.507Z,99.99
2022-08-22T02:49:13.699Z,99.99
2022-08-22T02:50:12.898Z,99.99
2022-08-22T02:51:14.269Z,99.99
2022-08-22T02:52:15.721Z,99.99
2022-08-22T02:53:12.994Z,99.99
2022-08-22T02:54:15.180Z,99.99
2022-08-22T02:55:13.561Z,99.99
2022-08-22T02:56:15.762Z,99.99
2022-08-22T02:57:15.009Z,99.99
2022-08-22T02:58:15.944Z,99.99
2022-08-22T02:59:14.723Z,99.99
2022-08-22T03:00:32.025Z,99.99
2022-08-22T03:01:16.458Z,99.99
2022-08-22T03:02:19.553Z,99.99
2022-08-22T03:03:19.273Z,99.99
2022-08-22T03:04:17.123Z,99.99
2022-08-22T03:05:17.537Z,99.99
2022-08-22T03:06:17.953Z,99.99
2022-08-22T03:07:20.114Z,99.99
2022-08-22T03:08:18.529Z,99.99
2022-08-22T03:09:17.815Z,99.99
2022-08-22T03:10:19.960Z,99.99
2022-08-22T03:11:18.351Z,99.99
2022-08-22T03:12:22.536Z,99.99
2022-08-22T03:13:20.782Z,99.99
2022-08-22T03:14:19.174Z,99.99
2022-08-22T03:15:19.476Z,99.99
2022-08-22T03:16:19.789Z,99.99
2022-08-22T03:17:20.989Z,99.99
2022-08-22T03:18:22.325Z,99.99
2022-08-22T03:19:20.706Z,99.99
2022-08-22T03:20:21.058Z,99.99
2022-08-22T03:21:21.278Z,99.99
2022-08-22T03:22:25.413Z,99.99
2022-08-22T03:23:21.842Z,99.99
2022-08-22T03:24:24.020Z,99.99
2022-08-22T03:25:24.213Z,99.99
2022-08-22T03:26:23.716Z,99.99
2022-08-22T03:27:32.516Z,99.99
2022-08-22T03:28:24.287Z,99.99
2022-08-22T03:29:25.481Z,99.99
2022-08-22T03:30:25.655Z,99.99
2022-08-22T03:31:25.814Z,99.99
2022-08-22T03:32:25.979Z,99.99
2022-08-22T03:33:24.831Z,99.99
2022-08-22T03:34:25.012Z,99.99
2022-08-22T03:35:27.200Z,99.99
2022-08-22T03:36:26.622Z,99.99
2022-08-22T03:37:27.790Z,99.99
2022-08-22T03:38:27.969Z,99.99
2022-08-22T03:39:28.168Z,99.99
2022-08-22T03:40:31.730Z,99.99
2022-08-22T03:41:29.014Z,99.99
2022-08-22T03:42:29.187Z,99.99
2022-08-22T03:43:29.370Z,99.99
2022-08-22T03:44:29.553Z,99.99
2022-08-22T03:45:30.355Z,99.99
2022-08-22T03:46:30.553Z,99.99
2022-08-22T03:47:30.762Z,99.99
2022-08-22T03:48:30.968Z,99.99
2022-08-22T03:49:29.611Z,99.99
2022-08-22T03:50:29.949Z,99.99
2022-08-22T03:51:32.143Z,99.99
2022-08-22T03:52:30.512Z,99.99
2022-08-22T03:53:32.694Z,99.99
2022-08-22T03:54:31.081Z,99.99
2022-08-22T03:55:33.277Z,99.99
2022-08-22T03:56:33.451Z,99.99
2022-08-22T03:57:31.966Z,99.99
2022-08-22T03:58:34.145Z,99.99
2022-08-22T03:59:32.558Z,99.99
2022-08-22T04:00:32.886Z,99.99
2022-08-22T04:01:35.020Z,99.99
2022-08-22T04:02:43.411Z,99.99
2022-08-22T04:03:36.613Z,99.99
2022-08-22T04:04:34.037Z,99.99
2022-08-22T04:05:34.412Z,99.99
2022-08-22T04:06:38.542Z,99.99
2022-08-22T04:07:36.791Z,99.99
2022-08-22T04:08:36.993Z,99.99
2022-08-22T04:09:38.170Z,99.99
2022-08-22T04:10:35.835Z,99.99
2022-08-22T04:11:39.111Z,99.99
2022-08-22T04:12:38.227Z,99.99
2022-08-22T04:13:36.638Z,99.99
2022-08-22T04:14:38.822Z,99.99
2022-08-22T04:15:37.228Z,99.99
2022-08-22T04:16:41.400Z,99.99
2022-08-22T04:17:37.830Z,99.99
2022-08-22T04:18:38.167Z,99.99
2022-08-22T04:19:40.349Z,99.99
2022-08-22T04:20:38.765Z,99.99
2022-08-22T04:21:39.934Z,99.99
2022-08-22T04:22:39.328Z,99.99
2022-08-22T04:23:41.202Z,99.99
2022-08-22T04:24:41.847Z,99.99
2022-08-22T04:25:40.183Z,99.99
2022-08-22T04:26:41.934Z,99.99
2022-08-22T04:27:40.721Z,99.99
2022-08-22T04:28:40.948Z,99.99
2022-08-22T04:29:42.148Z,99.99
2022-08-22T04:30:41.430Z,99.99
2022-08-22T04:31:43.265Z,99.99
2022-08-22T04:32:42.048Z,99.99
2022-08-22T04:33:42.392Z,99.99
2022-08-22T04:34:44.572Z,99.99
2022-08-22T04:35:43.001Z,99.99
2022-08-22T04:36:44.125Z,99.99
2022-08-22T04:37:43.585Z,99.99
2022-08-22T04:38:43.803Z,99.99
2022-08-22T04:39:46.059Z,99.99
2022-08-22T04:40:47.625Z,99.99
2022-08-22T04:41:45.697Z,99.99
2022-08-22T04:42:46.890Z,99.99
2022-08-22T04:43:45.318Z,99.99
2022-08-22T04:44:45.568Z,99.99
2022-08-22T04:45:46.848Z,99.99
2022-08-22T04:46:47.008Z,99.99
2022-08-22T04:47:54.100Z,99.99
2022-08-22T04:48:47.680Z,99.99
2022-08-22T04:49:46.975Z,99.99
2022-08-22T04:50:47.199Z,99.99
2022-08-22T04:51:51.336Z,99.99
2022-08-22T04:52:49.574Z,99.99
2022-08-22T04:53:48.128Z,99.99
2022-08-22T04:54:50.318Z,99.99
2022-08-22T04:55:50.518Z,99.99
2022-08-22T04:56:51.995Z,99.99
2022-08-22T04:57:50.717Z,99.99
2022-08-22T04:58:50.474Z,99.99
2022-08-22T04:59:49.780Z,99.99
2022-08-22T05:00:51.051Z,99.99
2022-08-22T05:01:51.234Z,99.99
2022-08-22T05:02:52.551Z,99.99
2022-08-22T05:03:52.742Z,99.99
2022-08-22T05:04:52.933Z,99.99
2022-08-22T05:05:51.599Z,99.99
2022-08-22T05:06:55.251Z,99.99
2022-08-22T05:07:55.964Z,99.99
2022-08-22T05:08:54.250Z,99.99
2022-08-22T05:09:54.439Z,99.99
2022-08-22T05:10:54.627Z,99.99
2022-08-22T05:11:54.089Z,98.34
2022-08-22T05:12:54.504Z,95.76
2022-08-22T05:13:55.844Z,94.81
2022-08-22T05:14:55.903Z,93.35
2022-08-22T05:15:55.234Z,92.19
2022-08-22T05:16:54.552Z,90.47
2022-08-22T05:17:54.848Z,89.26
2022-08-22T05:18:57.694Z,88.96
2022-08-22T05:19:59.624Z,89.20
2022-08-22T05:20:57.353Z,89.70
2022-08-22T05:21:57.736Z,90.21
2022-08-22T05:22:58.259Z,90.27
2022-08-22T05:23:58.445Z,90.33
2022-08-22T05:24:59.747Z,89.48
2022-08-22T05:25:58.845Z,88.63
2022-08-22T05:26:59.033Z,88.28
2022-08-22T05:27:58.833Z,86.53
2022-08-22T05:28:59.904Z,85.17
2022-08-22T05:30:01.315Z,84.63
2022-08-22T05:31:00.347Z,83.46
2022-08-22T05:32:00.589Z,84.21
2022-08-22T05:33:00.761Z,85.46
2022-08-22T05:34:01.455Z,86.36
2022-08-22T05:35:02.687Z,86.87
2022-08-22T05:36:01.925Z,88.12
2022-08-22T05:37:02.118Z,87.98
2022-08-22T05:38:02.277Z,87.09
2022-08-22T05:39:02.473Z,86.55
2022-08-22T05:40:05.199Z,85.70
2022-08-22T05:41:01.405Z,84.59
2022-08-22T05:42:03.601Z,84.55
2022-08-22T05:43:03.786Z,84.11
2022-08-22T05:44:03.987Z,83.40
2022-08-22T05:45:05.511Z,83.26
2022-08-22T05:46:03.809Z,82.38
2022-08-22T05:47:04.959Z,80.74
2022-08-22T05:48:05.156Z,80.71
2022-08-22T05:49:05.347Z,81.21
2022-08-22T05:50:06.048Z,81.07
2022-08-22T05:51:06.222Z,80.94
2022-08-22T05:52:06.410Z,80.98
2022-08-22T05:53:04.796Z,81.48
2022-08-22T05:54:05.047Z,81.94
2022-08-22T05:55:06.080Z,81.10
2022-08-22T05:56:07.488Z,80.40
2022-08-22T05:57:07.898Z,80.10
2022-08-22T05:58:06.244Z,79.62
2022-08-22T05:59:08.169Z,78.48
2022-08-22T06:00:07.647Z,78.04
2022-08-22T06:01:08.199Z,77.70
2022-08-22T06:02:11.384Z,77.60
2022-08-22T06:03:07.716Z,77.34
2022-08-22T06:04:07.946Z,78.81
2022-08-22T06:05:12.032Z,79.86
2022-08-22T06:06:09.378Z,80.76
2022-08-22T06:07:10.232Z,80.16
2022-08-22T06:08:08.965Z,80.60
2022-08-22T06:09:09.182Z,80.98
2022-08-22T06:10:10.532Z,82.52
2022-08-22T06:11:09.823Z,83.67
2022-08-22T06:12:18.157Z,84.81
2022-08-22T06:13:11.514Z,85.28
2022-08-22T06:14:10.664Z,84.09
2022-08-22T06:15:12.554Z,83.31
2022-08-22T06:16:13.161Z,81.76
2022-08-22T06:17:13.339Z,80.68
2022-08-22T06:18:11.894Z,79.44
2022-08-22T06:19:19.714Z,79.18
2022-08-22T06:20:14.177Z,79.85
2022-08-22T06:21:12.612Z,78.67
2022-08-22T06:22:14.384Z,77.53
2022-08-22T06:23:13.127Z,76.83
2022-08-22T06:24:13.363Z,77.70
2022-08-22T06:25:15.097Z,78.54
2022-08-22T06:26:20.395Z,79.58
2022-08-22T06:27:15.134Z,79.92
2022-08-22T06:28:14.438Z,80.56
2022-08-22T06:29:14.636Z,81.20
2022-08-22T06:30:16.039Z,81.90
2022-08-22T06:31:15.312Z,82.64
2022-08-22T06:32:17.508Z,83.15
2022-08-22T06:33:17.083Z,83.15
2022-08-22T06:34:16.224Z,82.89
2022-08-22T06:35:20.421Z,83.09
2022-08-22T06:36:16.751Z,83.39
2022-08-22T06:37:18.932Z,83.35
2022-08-22T06:38:19.116Z,83.39
2022-08-22T06:39:17.552Z,83.69
2022-08-22T06:40:21.836Z,83.99
2022-08-22T06:41:18.125Z,84.09
2022-08-22T06:42:18.385Z,83.69
2022-08-22T06:43:18.661Z,83.69
2022-08-22T06:44:18.918Z,83.83
2022-08-22T06:45:23.163Z,85.33
2022-08-22T06:46:19.493Z,86.65
2022-08-22T06:47:19.731Z,87.51
2022-08-22T06:48:21.937Z,87.51
2022-08-22T06:49:20.259Z,86.70
2022-08-22T06:50:20.496Z,87.04
2022-08-22T06:51:20.737Z,87.35
2022-08-22T06:52:22.927Z,87.55
2022-08-22T06:53:23.113Z,87.51
2022-08-22T06:54:21.557Z,86.16
2022-08-22T06:55:21.798Z,85.31
2022-08-22T06:56:22.064Z,83.81
2022-08-22T06:57:22.289Z,84.31
2022-08-22T06:58:26.439Z,84.21
2022-08-22T06:59:22.869Z,82.95
2022-08-22T07:00:23.111Z,83.65
2022-08-22T07:01:24.389Z,83.95
2022-08-22T07:02:27.642Z,84.21
2022-08-22T07:03:24.901Z,84.91
2022-08-22T07:04:27.631Z,82.90
2022-08-22T07:05:25.481Z,82.54
2022-08-22T07:06:25.634Z,81.68
2022-08-22T07:07:28.101Z,82.82
2022-08-22T07:08:27.244Z,83.59
2022-08-22T07:09:25.665Z,83.18
2022-08-22T07:10:29.811Z,82.64
2022-08-22T07:11:26.152Z,82.64
2022-08-22T07:12:29.432Z,82.10
2022-08-22T07:13:27.525Z,81.10
2022-08-22T07:14:30.382Z,81.30
2022-08-22T07:15:28.664Z,80.66
2022-08-22T07:16:29.397Z,79.88
2022-08-22T07:17:29.245Z,78.14
2022-08-22T07:18:28.834Z,77.76
2022-08-22T07:19:30.216Z,75.69
2022-08-22T07:20:30.297Z,74.52
2022-08-22T07:21:29.887Z,74.22
2022-08-22T07:22:30.702Z,74.55
2022-08-22T07:23:31.423Z,74.66
2022-08-22T07:24:29.724Z,74.62
2022-08-22T07:25:31.924Z,73.49
2022-08-22T07:26:30.249Z,72.12
2022-08-22T07:27:34.437Z,69.66
2022-08-22T07:28:34.730Z,66.78
2022-08-22T07:29:33.961Z,64.89
2022-08-22T07:30:33.156Z,63.70
2022-08-22T07:31:33.327Z,66.11
2022-08-22T07:32:34.918Z,69.39
2022-08-22T07:33:32.128Z,70.45
2022-08-22T07:34:33.187Z,71.06
2022-08-22T07:35:34.565Z,71.36
2022-08-22T07:36:34.721Z,71.45
2022-08-22T07:37:36.230Z,69.76
2022-08-22T07:38:33.453Z,69.29
2022-08-22T07:39:33.706Z,70.72
2022-08-22T07:40:34.910Z,70.62
2022-08-22T07:41:34.331Z,69.29
2022-08-22T07:42:38.492Z,70.29
2022-08-22T07:43:34.959Z,70.09
2022-08-22T07:44:37.144Z,70.89
2022-08-22T07:45:37.360Z,71.83
2022-08-22T07:46:37.551Z,72.23
2022-08-22T07:47:38.101Z,71.79
2022-08-22T07:48:53.501Z,71.69
2022-08-22T07:49:37.660Z,72.89
2022-08-22T07:50:38.852Z,72.62
2022-08-22T07:51:37.440Z,70.19
2022-08-22T07:52:38.370Z,71.59
2022-08-22T07:53:37.882Z,68.79
2022-08-22T07:54:38.089Z,69.29
2022-08-22T07:55:48.449Z,69.92
2022-08-22T07:56:43.497Z,68.43
2022-08-22T07:57:38.976Z,68.03
2022-08-22T07:58:39.172Z,65.83
2022-08-22T07:59:41.361Z,68.70
2022-08-22T08:00:39.670Z,68.93
2022-08-22T08:01:40.051Z,68.99
2022-08-22T08:02:43.309Z,69.29
2022-08-22T08:03:40.503Z,69.99
2022-08-22T08:04:40.877Z,70.29
2022-08-22T08:05:43.024Z,69.59
2022-08-22T08:06:41.343Z,69.06
2022-08-22T08:07:44.649Z,69.96
2022-08-22T08:08:41.846Z,70.32
2022-08-22T08:09:44.055Z,68.73
2022-08-22T08:10:42.388Z,69.02
2022-08-22T08:11:44.544Z,68.82
2022-08-22T08:12:57.946Z,69.06
2022-08-22T08:13:46.217Z,69.99
2022-08-22T08:14:45.404Z,69.36
2022-08-22T08:15:43.718Z,69.16
2022-08-22T08:16:43.983Z,70.09
2022-08-22T08:17:47.164Z,69.79
2022-08-22T08:18:44.728Z,68.76
2022-08-22T08:19:44.832Z,69.99
2022-08-22T08:20:47.014Z,68.86
2022-08-22T08:21:45.333Z,66.53
2022-08-22T08:22:48.592Z,66.96
2022-08-22T08:23:47.737Z,67.99
2022-08-22T08:24:46.201Z,68.10
2022-08-22T08:25:46.476Z,67.76
2022-08-22T08:26:47.706Z,66.93
2022-08-22T08:27:52.572Z,67.57
2022-08-22T08:28:48.814Z,65.05
2022-08-22T08:29:49.506Z,66.17
2022-08-22T08:30:47.941Z,67.50
2022-08-22T08:31:48.174Z,65.94
2022-08-22T08:32:52.358Z,64.42
2022-08-22T08:33:49.685Z,63.89
2022-08-22T08:34:49.039Z,63.36
2022-08-22T08:36:02.866Z,62.26
2022-08-22T08:36:50.527Z,63.16
2022-08-22T08:37:53.767Z,64.22
2022-08-22T08:38:51.982Z,61.24
2022-08-22T08:39:50.611Z,61.34
2022-08-22T08:40:50.732Z,61.40
2022-08-22T08:41:52.919Z,62.85
2022-08-22T08:42:52.771Z,63.75
2022-08-22T08:43:52.600Z,62.59
2022-08-22T08:44:51.790Z,63.36
2022-08-22T08:45:56.395Z,61.96
2022-08-22T08:46:55.981Z,64.72
2022-08-22T08:47:54.644Z,61.44
2022-08-22T08:48:52.941Z,60.74
2022-08-22T08:49:53.194Z,60.69
2022-08-22T08:50:53.457Z,58.57
2022-08-22T08:51:53.734Z,60.56
2022-08-22T08:52:57.999Z,59.92
2022-08-22T08:53:54.247Z,59.55
2022-08-22T08:54:56.407Z,58.98
2022-08-22T08:55:54.869Z,60.11
2022-08-22T08:56:57.078Z,60.77
2022-08-22T08:57:59.369Z,59.48
2022-08-22T08:58:56.703Z,60.13
2022-08-22T08:59:57.851Z,60.60
2022-08-22T09:00:57.034Z,59.98
2022-08-22T09:01:58.359Z,60.91
2022-08-22T09:03:00.548Z,57.90
2022-08-22T09:03:58.949Z,57.58
2022-08-22T09:04:57.205Z,57.81
2022-08-22T09:06:01.358Z,57.25
2022-08-22T09:07:01.297Z,56.85
2022-08-22T09:08:01.969Z,59.41
2022-08-22T09:08:58.278Z,57.27
2022-08-22T09:10:00.502Z,55.96
2022-08-22T09:10:58.818Z,55.60
2022-08-22T09:11:59.088Z,53.28
2022-08-22T09:13:11.633Z,52.06
2022-08-22T09:14:02.575Z,52.04
2022-08-22T09:14:59.937Z,53.88
2022-08-22T09:16:04.829Z,55.09
2022-08-22T09:17:05.353Z,55.96
2022-08-22T09:18:01.696Z,56.04
2022-08-22T09:19:04.004Z,55.99
2022-08-22T09:20:02.273Z,56.16
2022-08-22T09:21:03.457Z,56.11
2022-08-22T09:22:02.864Z,54.99
2022-08-22T09:23:05.073Z,55.07
2022-08-22T09:24:05.308Z,55.69
2022-08-22T09:25:05.975Z,56.36
2022-08-22T09:26:04.960Z,54.82
2022-08-22T09:27:08.642Z,57.00
2022-08-22T09:28:07.416Z,54.12
2022-08-22T09:29:03.778Z,53.77
2022-08-22T09:30:04.898Z,52.69
2022-08-22T09:31:16.580Z,53.92
2022-08-22T09:32:05.689Z,55.39
2022-08-22T09:33:08.847Z,56.00
2022-08-22T09:34:06.048Z,53.38
2022-08-22T09:35:06.583Z,53.00
2022-08-22T09:36:06.637Z,52.73
2022-08-22T09:37:07.820Z,54.56
2022-08-22T09:38:10.244Z,51.35
2022-08-22T09:39:07.386Z,50.38
2022-08-22T09:40:08.183Z,50.88
2022-08-22T09:41:10.999Z,52.73
2022-08-22T09:42:08.353Z,50.83
2022-08-22T09:43:11.792Z,49.18
2022-08-22T09:44:08.138Z,47.26
2022-08-22T09:45:08.376Z,48.03
2022-08-22T09:46:08.641Z,44.96
2022-08-22T09:47:10.860Z,47.43
2022-08-22T09:48:13.063Z,48.39
2022-08-22T09:49:11.293Z,47.45
2022-08-22T09:50:09.855Z,48.88
2022-08-22T09:51:31.278Z,51.05
2022-08-22T09:52:15.195Z,52.86
2022-08-22T09:53:12.415Z,52.81
2022-08-22T09:54:12.253Z,55.32
2022-08-22T09:55:15.921Z,57.54
2022-08-22T09:56:15.194Z,58.97
2022-08-22T09:57:13.868Z,59.66
2022-08-22T09:58:13.695Z,59.96
2022-08-22T09:59:14.843Z,60.59
2022-08-22T10:00:14.045Z,60.99
2022-08-22T10:01:14.797Z,61.58
2022-08-22T10:02:15.776Z,61.11
2022-08-22T10:03:15.303Z,61.02
2022-08-22T10:04:13.531Z,61.91
2022-08-22T10:05:40.289Z,61.11
2022-08-22T10:06:15.049Z,62.98
2022-08-22T10:07:14.283Z,62.48
2022-08-22T10:08:20.103Z,62.65
2022-08-22T10:09:14.965Z,60.56
2022-08-22T10:10:15.212Z,60.93
2022-08-22T10:11:15.441Z,59.94
2022-08-22T10:12:15.790Z,58.67
2022-08-22T10:13:19.961Z,59.82
2022-08-22T10:14:16.311Z,61.47
2022-08-22T10:15:19.499Z,62.27
2022-08-22T10:16:16.830Z,62.15
2022-08-22T10:17:21.833Z,62.24
2022-08-22T10:18:20.193Z,61.82
2022-08-22T10:19:18.062Z,60.22
2022-08-22T10:20:19.841Z,60.32
2022-08-22T10:21:18.142Z,60.52
2022-08-22T10:22:20.332Z,60.52
2022-08-22T10:23:21.119Z,61.52
2022-08-22T10:24:25.082Z,62.01
2022-08-22T10:25:19.294Z,61.82
2022-08-22T10:26:22.702Z,62.12
2022-08-22T10:27:19.761Z,61.22
2022-08-22T10:28:21.189Z,61.85
2022-08-22T10:29:22.194Z,61.94
2022-08-22T10:30:22.387Z,62.45
2022-08-22T10:31:24.018Z,62.48
2022-08-22T10:32:21.211Z,61.65
2022-08-22T10:33:23.922Z,61.35
2022-08-22T10:34:21.736Z,61.25
2022-08-22T10:35:25.539Z,61.35
2022-08-22T10:36:26.241Z,63.44
2022-08-22T10:37:23.946Z,62.91
2022-08-22T10:38:25.261Z,63.48
2022-08-22T10:39:23.114Z,63.75
2022-08-22T10:40:23.431Z,60.46
2022-08-22T10:41:25.543Z,59.86
2022-08-22T10:42:23.981Z,59.66
2022-08-22T10:43:28.798Z,60.19
2022-08-22T10:44:24.549Z,60.52
2022-08-22T10:45:36.681Z,60.42
2022-08-22T10:46:27.908Z,60.62
2022-08-22T10:47:27.096Z,61.02
2022-08-22T10:48:26.596Z,61.49
2022-08-22T10:49:28.718Z,60.49
2022-08-22T10:50:31.129Z,59.77
2022-08-22T10:51:28.725Z,59.96
2022-08-22T10:52:26.758Z,59.86
2022-08-22T10:53:29.410Z,60.36
2022-08-22T10:54:29.153Z,59.53
2022-08-22T10:55:29.356Z,61.40
2022-08-22T10:56:27.826Z,57.99
2022-08-22T10:57:28.136Z,57.19
2022-08-22T10:58:31.917Z,57.52
2022-08-22T10:59:28.623Z,56.92
2022-08-22T11:00:28.879Z,57.32
2022-08-22T11:01:37.630Z,57.64
2022-08-22T11:02:30.354Z,57.24
2022-08-22T11:03:33.579Z,57.54
2022-08-22T11:04:29.961Z,57.02
2022-08-22T11:05:31.144Z,57.89
2022-08-22T11:06:30.453Z,59.05
2022-08-22T11:07:30.696Z,58.53
2022-08-22T11:08:31.632Z,55.52
2022-08-22T11:09:35.771Z,57.38
2022-08-22T11:10:35.871Z,54.38
2022-08-22T11:11:32.607Z,55.44
2022-08-22T11:12:34.842Z,53.68
2022-08-22T11:13:33.178Z,53.80
2022-08-22T11:14:32.603Z,54.93
2022-08-22T11:15:36.262Z,54.50
2022-08-22T11:16:36.777Z,53.78
2022-08-22T11:17:40.634Z,54.38
2022-08-22T11:18:35.489Z,53.85
2022-08-22T11:19:33.959Z,53.20
2022-08-22T11:20:36.122Z,56.74
2022-08-22T11:21:36.091Z,52.44
2022-08-22T11:22:34.798Z,50.98
2022-08-22T11:23:36.514Z,53.06
2022-08-22T11:24:36.305Z,54.08
2022-08-22T11:25:40.056Z,54.55
2022-08-22T11:26:46.690Z,52.98
2022-08-22T11:27:39.949Z,51.37
2022-08-22T11:28:37.348Z,50.68
2022-08-22T11:29:36.668Z,51.05
2022-08-22T11:30:44.901Z,51.65
2022-08-22T11:31:39.105Z,50.21
2022-08-22T11:32:40.458Z,50.58
2022-08-22T11:33:47.076Z,54.54
2022-08-22T11:34:40.099Z,54.74
2022-08-22T11:35:40.287Z,55.66
2022-08-22T11:36:39.660Z,54.07
2022-08-22T11:37:43.405Z,53.97
2022-08-22T11:38:42.281Z,54.99
2022-08-22T11:39:40.410Z,56.11
2022-08-22T11:40:40.547Z,55.87
2022-08-22T11:41:41.959Z,55.47
2022-08-22T11:42:47.774Z,55.04
2022-08-22T11:43:42.562Z,54.35
2022-08-22T11:44:50.371Z,53.45
2022-08-22T11:45:44.112Z,54.35
2022-08-22T11:46:43.307Z,51.75
2022-08-22T11:47:41.744Z,51.79
2022-08-22T11:48:47.368Z,52.31
2022-08-22T11:49:42.344Z,51.30
2022-08-22T11:50:43.425Z,52.09
2022-08-22T11:51:44.773Z,52.19
2022-08-22T11:52:44.001Z,51.50
2022-08-22T11:53:45.441Z,50.83
2022-08-22T11:54:46.339Z,51.42
2022-08-22T11:55:44.033Z,53.91
2022-08-22T11:56:46.208Z,55.44
2022-08-22T11:57:44.856Z,55.65
2022-08-22T11:58:48.697Z,57.93
2022-08-22T11:59:47.907Z,58.00
2022-08-22T12:00:45.355Z,55.22
2022-08-22T12:01:47.582Z,56.09
2022-08-22T12:02:47.734Z,56.04
2022-08-22T12:03:47.041Z,53.26
2022-08-22T12:04:48.288Z,53.26
2022-08-22T12:05:48.668Z,52.89
2022-08-22T12:06:47.100Z,53.91
2022-08-22T12:07:50.611Z,54.60
2022-08-22T12:08:50.663Z,56.46
2022-08-22T12:09:48.017Z,57.03
2022-08-22T12:10:48.259Z,54.45
2022-08-22T12:11:48.591Z,55.11
2022-08-22T12:12:49.774Z,55.11
2022-08-22T12:13:52.583Z,55.15
2022-08-22T12:14:50.367Z,55.27
2022-08-22T12:15:53.956Z,54.87
2022-08-22T12:16:49.994Z,56.43
2022-08-22T12:18:00.924Z,56.04
2022-08-22T12:18:52.898Z,57.65
2022-08-22T12:20:14.693Z,57.25
2022-08-22T12:20:52.292Z,57.75
2022-08-22T12:21:53.166Z,56.36
2022-08-22T12:22:53.344Z,57.06
2022-08-22T12:23:56.028Z,56.19
2022-08-22T12:24:52.054Z,57.01
2022-08-22T12:25:56.238Z,56.21
2022-08-22T12:26:52.705Z,56.32
2022-08-22T12:27:55.388Z,55.91
2022-08-22T12:28:56.169Z,56.12
2022-08-22T12:29:53.489Z,56.32
2022-08-22T12:30:55.673Z,57.51
2022-08-22T12:31:56.980Z,57.41
2022-08-22T12:32:56.285Z,57.53
2022-08-22T12:33:54.576Z,57.43
2022-08-22T12:34:56.889Z,57.70
2022-08-22T12:35:56.962Z,58.00
2022-08-22T12:36:57.433Z,57.90
2022-08-22T12:37:57.166Z,57.70
2022-08-22T12:38:55.979Z,58.50
2022-08-22T12:39:58.222Z,58.60
2022-08-22T12:40:56.517Z,58.20
2022-08-22T12:41:58.217Z,57.11
2022-08-22T12:42:58.941Z,57.21
2022-08-22T12:43:57.254Z,57.11
2022-08-22T12:44:59.439Z,58.47
2022-08-22T12:45:57.793Z,56.29
2022-08-22T12:46:59.045Z,56.06
2022-08-22T12:47:58.493Z,56.26
2022-08-22T12:49:00.960Z,56.04
2022-08-22T12:49:59.976Z,55.47
2022-08-22T12:50:59.673Z,57.18